createdAt,value
2022-08-17T00:01:31.487Z,55.05
2022-08-17T00:04:19.202Z,55.73
2022-08-17T00:06:49.036Z,56.28
2022-08-17T00:09:18.755Z,56.12
2022-08-17T00:12:42.054Z,56.41
2022-08-17T00:14:35.904Z,56.05
2022-08-17T00:17:04.583Z,56.00
2022-08-17T00:19:32.499Z,56.14
2022-08-17T00:22:32.178Z,55.94
2022-08-17T00:24:47.376Z,56.03
2022-08-17T00:27:13.897Z,55.93
2022-08-17T00:29:40.534Z,55.34
2022-08-17T00:33:10.813Z,56.33
2022-08-17T00:34:53.575Z,56.18
2022-08-17T00:37:20.057Z,56.11
2022-08-17T00:39:46.632Z,56.13
2022-08-17T00:42:16.121Z,56.50
2022-08-17T00:44:42.638Z,57.16
2022-08-17T00:47:09.149Z,57.44
2022-08-17T00:49:35.570Z,57.36
2022-08-17T00:52:12.052Z,57.53
2022-08-17T00:54:43.158Z,57.64
2022-08-17T00:57:31.931Z,57.87
2022-08-17T01:00:12.681Z,58.33
2022-08-17T01:02:43.859Z,58.44
2022-08-17T01:05:18.941Z,59.01
2022-08-17T01:07:47.843Z,59.19
2022-08-17T01:10:57.609Z,59.19
2022-08-17T01:13:03.620Z,59.90
2022-08-17T01:15:34.319Z,59.94
2022-08-17T01:18:00.853Z,60.10
2022-08-17T01:20:27.546Z,60.51
2022-08-17T01:22:54.185Z,60.69
2022-08-17T01:25:21.418Z,60.89
2022-08-17T01:27:48.901Z,61.19
2022-08-17T01:30:56.628Z,61.38
2022-08-17T01:33:04.257Z,61.29
2022-08-17T01:35:30.837Z,60.98
2022-08-17T01:37:57.281Z,61.20
2022-08-17T01:40:33.517Z,61.25
2022-08-17T01:43:07.230Z,61.50
2022-08-17T01:45:40.824Z,61.84
2022-08-17T01:48:08.008Z,61.95
2022-08-17T01:50:37.807Z,62.29
2022-08-17T01:53:07.844Z,62.71
2022-08-17T01:55:47.220Z,62.28
2022-08-17T01:58:13.846Z,62.68
2022-08-17T02:00:59.464Z,62.75
2022-08-17T02:03:27.651Z,62.99
2022-08-17T02:05:54.242Z,63.33
2022-08-17T02:08:38.690Z,63.73
2022-08-17T02:11:15.616Z,64.04
2022-08-17T02:13:43.684Z,64.59
2022-08-17T02:16:10.414Z,64.53
2022-08-17T02:18:37.270Z,64.82
2022-08-17T02:21:04.838Z,64.83
2022-08-17T02:23:36.220Z,64.93
2022-08-17T02:26:02.668Z,65.40
2022-08-17T02:28:29.187Z,64.89
2022-08-17T02:31:00.836Z,65.22
2022-08-17T02:33:43.275Z,65.22
2022-08-17T02:36:12.589Z,65.19
2022-08-17T02:38:40.515Z,65.31
2022-08-17T02:41:07.570Z,65.35
2022-08-17T02:43:34.834Z,66.11
2022-08-17T02:46:01.547Z,66.10
2022-08-17T02:48:30.992Z,66.11
2022-08-17T02:50:58.530Z,66.86
2022-08-17T02:53:25.777Z,67.39
2022-08-17T02:55:52.760Z,67.38
2022-08-17T02:58:34.732Z,67.62
2022-08-17T03:01:05.099Z,68.02
2022-08-17T03:03:32.235Z,68.23
2022-08-17T03:05:58.781Z,68.24
2022-08-17T03:08:25.461Z,68.41
2022-08-17T03:10:52.243Z,68.36
2022-08-17T03:13:19.236Z,68.79
2022-08-17T03:15:46.690Z,68.92
2022-08-17T03:18:19.075Z,69.02
2022-08-17T03:20:58.092Z,69.05
2022-08-17T03:23:26.233Z,68.99
2022-08-17T03:25:54.682Z,69.23
2022-08-17T03:28:22.540Z,69.21
2022-08-17T03:30:50.894Z,69.29
2022-08-17T03:33:17.616Z,69.39
2022-08-17T03:35:44.159Z,69.44
2022-08-17T03:38:12.033Z,69.39
2022-08-17T03:40:58.155Z,69.60
2022-08-17T03:43:27.511Z,69.80
2022-08-17T03:46:26.917Z,69.99
2022-08-17T03:49:13.831Z,70.08
2022-08-17T03:51:58.798Z,70.34
2022-08-17T03:54:43.831Z,70.23
2022-08-17T03:57:12.362Z,70.58
2022-08-17T03:59:41.019Z,70.92
2022-08-17T04:02:15.530Z,70.65
2022-08-17T04:04:41.945Z,70.93
2022-08-17T04:07:08.889Z,70.98
2022-08-17T04:09:36.400Z,71.11
2022-08-17T04:12:05.060Z,70.71
2022-08-17T04:14:39.188Z,70.79
2022-08-17T04:17:24.904Z,71.23
2022-08-17T04:19:51.742Z,71.18
2022-08-17T04:22:30.070Z,70.91
2022-08-17T04:25:03.677Z,70.86
2022-08-17T04:27:30.162Z,71.10
2022-08-17T04:29:56.591Z,70.79
2022-08-17T04:33:05.011Z,70.74
2022-08-17T04:35:09.902Z,70.89
2022-08-17T04:37:36.387Z,71.12
2022-08-17T04:40:22.423Z,71.37
2022-08-17T04:43:04.216Z,71.55
2022-08-17T04:45:31.255Z,71.60
2022-08-17T04:47:59.546Z,71.91
2022-08-17T04:50:26.093Z,72.18
2022-08-17T04:52:52.693Z,72.30
2022-08-17T04:55:19.319Z,72.05
2022-08-17T04:57:45.806Z,72.17
2022-08-17T05:00:12.700Z,72.34
2022-08-17T05:02:50.608Z,72.50
2022-08-17T05:05:20.173Z,72.13
2022-08-17T05:07:47.695Z,71.47
2022-08-17T05:10:14.152Z,71.04
2022-08-17T05:12:40.805Z,70.43
2022-08-17T05:15:12.550Z,69.90
2022-08-17T05:17:39.117Z,69.34
2022-08-17T05:20:06.128Z,68.98
2022-08-17T05:22:32.576Z,68.59
2022-08-17T05:24:59.054Z,67.95
2022-08-17T05:27:30.837Z,66.91
2022-08-17T05:30:02.122Z,66.21
2022-08-17T05:32:39.006Z,65.67
2022-08-17T05:35:07.069Z,65.15
2022-08-17T05:37:33.511Z,64.97
2022-08-17T05:40:00.071Z,64.50
2022-08-17T05:42:26.609Z,64.31
2022-08-17T05:44:53.208Z,64.16
2022-08-17T05:47:21.949Z,64.09
2022-08-17T05:49:49.011Z,63.84
2022-08-17T05:52:23.589Z,63.48
2022-08-17T05:54:59.118Z,63.52
2022-08-17T05:57:53.654Z,60.89
2022-08-17T06:00:42.982Z,58.64
2022-08-17T06:03:25.239Z,59.29
2022-08-17T06:05:57.445Z,58.82
2022-08-17T06:08:33.452Z,58.94
2022-08-17T06:11:22.693Z,58.76
2022-08-17T06:13:49.196Z,59.00
2022-08-17T06:16:33.359Z,57.90
2022-08-17T06:19:14.477Z,57.50
2022-08-17T06:21:44.092Z,57.34
2022-08-17T06:24:16.266Z,57.19
2022-08-17T06:26:45.433Z,56.24
2022-08-17T06:29:35.309Z,56.52
2022-08-17T06:32:02.597Z,56.01
2022-08-17T06:34:29.807Z,55.71
2022-08-17T06:37:28.911Z,57.38
2022-08-17T06:40:40.211Z,57.77
2022-08-17T06:43:34.339Z,56.13
2022-08-17T06:46:13.313Z,54.72
2022-08-17T06:48:46.889Z,54.85
2022-08-17T06:51:27.260Z,54.98
2022-08-17T06:54:15.164Z,54.10
2022-08-17T06:56:53.458Z,53.62
2022-08-17T06:59:55.843Z,53.68
2022-08-17T07:02:53.001Z,53.44
2022-08-17T07:05:51.327Z,53.73
2022-08-17T07:08:35.195Z,54.11
2022-08-17T07:11:13.637Z,53.93
2022-08-17T07:14:17.461Z,54.51
2022-08-17T07:16:48.145Z,54.72
2022-08-17T07:19:17.184Z,54.85
2022-08-17T07:22:05.416Z,55.11
2022-08-17T07:24:47.317Z,55.36
2022-08-17T07:27:20.789Z,55.32
2022-08-17T07:30:04.692Z,55.49
2022-08-17T07:32:42.961Z,56.15
2022-08-17T07:35:12.819Z,56.12
2022-08-17T07:37:53.019Z,56.90
2022-08-17T07:40:34.461Z,56.41
2022-08-17T07:43:05.142Z,56.26
2022-08-17T07:45:51.083Z,56.39
2022-08-17T07:48:21.467Z,56.30
2022-08-17T07:50:49.561Z,56.46
2022-08-17T07:53:20.622Z,57.05
2022-08-17T07:55:47.636Z,57.49
2022-08-17T07:58:20.207Z,57.56
2022-08-17T08:00:46.716Z,56.76
2022-08-17T08:03:28.478Z,57.00
2022-08-17T08:06:00.068Z,57.02
2022-08-17T08:08:29.030Z,57.16
2022-08-17T08:11:06.126Z,57.37
2022-08-17T08:13:33.834Z,57.12
2022-08-17T08:16:26.946Z,56.99
2022-08-17T08:18:59.603Z,57.29
2022-08-17T08:21:53.474Z,56.51
2022-08-17T08:24:52.126Z,56.57
2022-08-17T08:27:27.405Z,56.35
2022-08-17T08:30:04.873Z,55.98
2022-08-17T08:32:53.913Z,56.03
2022-08-17T08:35:37.994Z,55.95
2022-08-17T08:38:42.527Z,56.10
2022-08-17T08:41:36.732Z,55.55
2022-08-17T08:44:13.197Z,55.50
2022-08-17T08:46:45.741Z,55.40
2022-08-17T08:50:02.549Z,56.02
2022-08-17T08:52:48.031Z,55.43
2022-08-17T08:55:36.710Z,55.41
2022-08-17T08:58:31.455Z,55.94
2022-08-17T09:00:59.334Z,55.25
2022-08-17T09:03:53.368Z,55.41
2022-08-17T09:06:39.389Z,54.63
2022-08-17T09:09:21.573Z,54.26
2022-08-17T09:12:13.834Z,53.75
2022-08-17T09:15:13.276Z,53.55
2022-08-17T09:18:59.158Z,53.62
2022-08-17T09:21:22.393Z,53.64
2022-08-17T09:24:00.107Z,53.30
2022-08-17T09:26:53.802Z,53.48
2022-08-17T09:29:25.318Z,52.70
2022-08-17T09:31:59.527Z,53.20
2022-08-17T09:34:43.531Z,53.01
2022-08-17T09:37:32.767Z,53.06
2022-08-17T09:40:25.834Z,52.70
2022-08-17T09:43:16.993Z,53.26
2022-08-17T09:45:52.037Z,53.41
2022-08-17T09:48:27.501Z,53.35
2022-08-17T09:51:20.068Z,53.14
2022-08-17T09:53:46.892Z,53.27
2022-08-17T09:56:35.277Z,53.84
2022-08-17T09:59:21.224Z,54.71
2022-08-17T10:02:00.837Z,55.02
2022-08-17T10:04:49.834Z,55.40
2022-08-17T10:07:28.721Z,55.73
2022-08-17T10:10:29.660Z,56.12
2022-08-17T10:13:18.328Z,56.33
2022-08-17T10:16:07.720Z,56.36
2022-08-17T10:18:49.400Z,56.21
2022-08-17T10:21:37.608Z,56.37
2022-08-17T10:24:33.141Z,57.03
2022-08-17T10:27:02.830Z,57.43
2022-08-17T10:29:49.021Z,58.11
2022-08-17T10:32:27.501Z,59.72
2022-08-17T10:35:20.001Z,61.46
2022-08-17T10:37:59.148Z,62.36
2022-08-17T10:40:54.225Z,63.17
2022-08-17T10:44:36.563Z,63.51
2022-08-17T10:46:57.357Z,63.83
2022-08-17T10:49:32.608Z,64.17
2022-08-17T10:52:02.314Z,63.12
2022-08-17T10:54:39.544Z,62.96
2022-08-17T10:57:29.009Z,63.51
2022-08-17T10:59:57.258Z,63.97
2022-08-17T11:02:49.187Z,64.43
2022-08-17T11:05:50.163Z,64.11
2022-08-17T11:08:45.762Z,64.96
2022-08-17T11:11:38.897Z,65.52
2022-08-17T11:14:27.149Z,66.00
2022-08-17T11:17:22.874Z,66.23
2022-08-17T11:20:17.571Z,67.63
2022-08-17T11:23:06.036Z,70.21
2022-08-17T11:25:47.819Z,71.34
2022-08-17T11:28:19.176Z,71.14
2022-08-17T11:30:53.757Z,71.65
2022-08-17T11:33:29.530Z,71.51
2022-08-17T11:36:19.849Z,72.38
2022-08-17T11:38:57.739Z,72.96
2022-08-17T11:41:54.426Z,73.52
2022-08-17T11:44:45.439Z,74.18
2022-08-17T11:47:41.778Z,74.14
2022-08-17T11:50:39.028Z,75.29
2022-08-17T11:53:06.022Z,75.74
2022-08-17T11:55:39.638Z,76.22
2022-08-17T11:58:27.512Z,77.18
2022-08-17T12:00:59.590Z,77.58
2022-08-17T12:03:32.077Z,78.50
2022-08-17T12:06:17.566Z,78.04
2022-08-17T12:08:52.042Z,79.08
2022-08-17T12:11:56.393Z,78.52
2022-08-17T12:14:51.692Z,78.91
2022-08-17T12:17:41.183Z,79.16
2022-08-17T12:20:37.086Z,80.09
2022-08-17T12:23:16.053Z,79.24
2022-08-17T12:25:57.434Z,78.96
2022-08-17T12:28:31.810Z,79.01
2022-08-17T12:31:04.558Z,78.82
2022-08-17T12:33:31.542Z,78.76
2022-08-17T12:36:02.979Z,79.00
2022-08-17T12:38:35.099Z,77.06
2022-08-17T12:41:24.540Z,76.00
2022-08-17T12:44:11.836Z,75.45
2022-08-17T12:46:50.409Z,75.38
2022-08-17T12:49:28.180Z,75.47
2022-08-17T12:52:13.935Z,74.62
2022-08-17T12:54:55.338Z,74.00
2022-08-17T12:57:26.420Z,73.20
2022-08-17T13:00:21.699Z,72.67
2022-08-17T13:02:52.286Z,72.70
2022-08-17T13:05:28.635Z,70.91
2022-08-17T13:07:58.733Z,69.91
2022-08-17T13:10:34.371Z,68.06
2022-08-17T13:13:17.540Z,65.57
2022-08-17T13:16:03.039Z,63.53
2022-08-17T13:19:07.082Z,59.83
2022-08-17T13:21:35.347Z,57.97
2022-08-17T13:24:10.959Z,57.16
2022-08-17T13:26:46.288Z,56.25
2022-08-17T13:29:23.826Z,55.30
2022-08-17T13:32:03.866Z,55.52
2022-08-17T13:35:08.308Z,54.85
2022-08-17T13:37:36.196Z,55.17
2022-08-17T13:40:11.669Z,55.98
2022-08-17T13:42:54.161Z,56.40
2022-08-17T13:45:35.651Z,56.17
2022-08-17T13:48:11.826Z,56.55
2022-08-17T13:50:55.548Z,56.05
2022-08-17T13:53:23.471Z,55.85
2022-08-17T13:55:56.330Z,56.55
2022-08-17T13:58:26.985Z,57.16
2022-08-17T14:00:53.781Z,56.67
2022-08-17T14:03:20.761Z,56.61
2022-08-17T14:05:48.581Z,57.40
2022-08-17T14:08:16.761Z,57.99
2022-08-17T14:10:45.192Z,57.79
2022-08-17T14:13:15.070Z,57.26
2022-08-17T14:15:54.513Z,57.65
2022-08-17T14:18:55.722Z,58.08
2022-08-17T14:21:09.994Z,58.61
2022-08-17T14:23:37.484Z,58.63
2022-08-17T14:26:04.829Z,59.17
2022-08-17T14:28:32.036Z,59.49
2022-08-17T14:31:00.692Z,60.02
2022-08-17T14:33:28.844Z,60.73
2022-08-17T14:35:55.831Z,61.15
2022-08-17T14:38:22.320Z,61.32
2022-08-17T14:40:49.088Z,61.23
2022-08-17T14:43:15.731Z,60.65
2022-08-17T14:45:42.936Z,59.96
2022-08-17T14:48:10.492Z,58.24
2022-08-17T14:50:40.628Z,56.18
2022-08-17T14:53:09.633Z,55.83
2022-08-17T14:55:39.637Z,55.03
2022-08-17T14:58:07.365Z,55.70
2022-08-17T15:00:34.026Z,55.71
2022-08-17T15:03:02.000Z,56.04
2022-08-17T15:05:33.361Z,55.90
2022-08-17T15:08:01.118Z,56.23
2022-08-17T15:10:29.344Z,55.97
2022-08-17T15:12:56.261Z,56.13
2022-08-17T15:15:23.637Z,55.05
2022-08-17T15:17:51.259Z,54.74
2022-08-17T15:20:20.909Z,54.17
2022-08-17T15:22:55.216Z,54.57
2022-08-17T15:25:22.866Z,55.49
2022-08-17T15:27:49.647Z,55.62
2022-08-17T15:30:17.115Z,56.16
2022-08-17T15:32:51.263Z,55.97
2022-08-17T15:35:28.136Z,55.87
2022-08-17T15:37:57.810Z,56.52
2022-08-17T15:40:25.042Z,56.25
2022-08-17T15:42:52.572Z,56.37
2022-08-17T15:45:22.471Z,56.63
2022-08-17T15:47:48.951Z,57.21
2022-08-17T15:50:15.440Z,57.16
2022-08-17T15:52:44.748Z,57.32
2022-08-17T15:55:17.884Z,57.86
2022-08-17T15:57:46.225Z,58.14
2022-08-17T16:00:13.044Z,57.83
2022-08-17T16:03:45.181Z,58.61
2022-08-17T16:05:31.258Z,58.54
2022-08-17T16:07:59.429Z,58.65
2022-08-17T16:10:34.704Z,58.54
2022-08-17T16:13:02.558Z,58.60
2022-08-17T16:15:31.153Z,57.75
2022-08-17T16:17:57.664Z,58.01
2022-08-17T16:20:24.118Z,57.80
2022-08-17T16:22:50.779Z,58.22
2022-08-17T16:25:38.299Z,58.66
2022-08-17T16:28:12.178Z,58.56
2022-08-17T16:30:38.766Z,58.68
2022-08-17T16:33:05.473Z,58.86
2022-08-17T16:35:31.964Z,59.58
2022-08-17T16:37:58.728Z,59.09
2022-08-17T16:40:27.644Z,58.84
2022-08-17T16:42:55.244Z,58.50
2022-08-17T16:45:40.059Z,59.06
2022-08-17T16:48:07.929Z,59.43
2022-08-17T16:50:34.662Z,59.56
2022-08-17T16:53:17.734Z,58.83
2022-08-17T16:55:45.836Z,58.72
2022-08-17T16:58:12.387Z,58.26
2022-08-17T17:00:39.401Z,58.28
2022-08-17T17:03:22.053Z,58.72
2022-08-17T17:05:55.126Z,58.83
2022-08-17T17:08:26.573Z,59.01
2022-08-17T17:10:56.232Z,59.01
2022-08-17T17:13:47.105Z,59.34
2022-08-17T17:16:28.756Z,59.34
2022-08-17T17:19:14.869Z,59.86
2022-08-17T17:22:00.053Z,59.65
2022-08-17T17:24:41.372Z,59.37
2022-08-17T17:27:23.399Z,59.29
2022-08-17T17:30:12.214Z,60.17
2022-08-17T17:32:50.632Z,60.16
2022-08-17T17:35:24.251Z,60.83
2022-08-17T17:37:53.945Z,60.65
2022-08-17T17:40:29.071Z,60.98
2022-08-17T17:43:09.461Z,62.06
2022-08-17T17:46:27.797Z,62.08
2022-08-17T17:48:56.636Z,61.93
2022-08-17T17:52:07.657Z,61.80
2022-08-17T17:54:36.882Z,61.69
2022-08-17T17:57:10.904Z,62.11
2022-08-17T17:59:52.599Z,63.01
2022-08-17T18:02:47.361Z,63.35
2022-08-17T18:05:36.986Z,63.06
2022-08-17T18:08:41.813Z,62.96
2022-08-17T18:11:25.027Z,62.30
2022-08-17T18:14:14.225Z,61.76
2022-08-17T18:16:42.656Z,62.01
2022-08-17T18:19:14.968Z,62.82
2022-08-17T18:21:46.248Z,63.66
2022-08-17T18:24:13.687Z,63.07
2022-08-17T18:26:40.192Z,63.48
2022-08-17T18:29:13.933Z,63.52
2022-08-17T18:31:40.439Z,64.22
2022-08-17T18:34:48.946Z,64.18
2022-08-17T18:37:33.748Z,64.46
2022-08-17T18:40:20.145Z,64.93
2022-08-17T18:43:44.400Z,65.36
2022-08-17T18:46:29.502Z,65.24
2022-08-17T18:49:00.709Z,65.19
2022-08-17T18:51:43.328Z,65.66
2022-08-17T18:54:20.940Z,65.82
2022-08-17T18:56:58.740Z,65.76
2022-08-17T18:59:39.665Z,65.76
2022-08-17T19:02:20.575Z,66.38
2022-08-17T19:05:00.892Z,66.89
2022-08-17T19:07:42.169Z,66.95
2022-08-17T19:10:46.668Z,67.41
2022-08-17T19:13:24.584Z,67.81
2022-08-17T19:16:13.082Z,68.34
2022-08-17T19:18:50.840Z,68.66
2022-08-17T19:21:23.835Z,69.28
2022-08-17T19:23:54.576Z,69.72
2022-08-17T19:26:55.209Z,70.29
2022-08-17T19:29:22.417Z,70.65
2022-08-17T19:31:49.842Z,71.10
2022-08-17T19:34:17.628Z,71.85
2022-08-17T19:37:06.737Z,71.91
2022-08-17T19:39:50.651Z,72.35
2022-08-17T19:42:49.735Z,73.02
2022-08-17T19:45:32.555Z,73.86
2022-08-17T19:48:32.176Z,73.81
2022-08-17T19:51:05.728Z,74.44
2022-08-17T19:54:03.777Z,74.86
2022-08-17T19:56:56.664Z,75.21
2022-08-17T19:59:39.333Z,75.78
2022-08-17T20:02:34.885Z,75.96
2022-08-17T20:05:13.313Z,76.39
2022-08-17T20:08:04.465Z,76.88
2022-08-17T20:10:45.221Z,77.25
2022-08-17T20:13:33.187Z,77.99
2022-08-17T20:16:01.054Z,78.27
2022-08-17T20:19:06.728Z,78.98
2022-08-17T20:21:53.217Z,79.31
2022-08-17T20:24:39.693Z,80.09
2022-08-17T20:27:11.914Z,80.46
2022-08-17T20:30:03.343Z,81.02
2022-08-17T20:32:35.312Z,81.47
2022-08-17T20:35:26.803Z,81.53
2022-08-17T20:37:57.540Z,82.10
2022-08-17T20:40:31.580Z,82.45
2022-08-17T20:42:58.884Z,82.81
2022-08-17T20:45:25.944Z,83.44
2022-08-17T20:48:36.152Z,83.85
2022-08-17T20:51:15.110Z,84.88
2022-08-17T20:53:47.689Z,85.34
2022-08-17T20:56:42.949Z,85.12
2022-08-17T20:59:25.572Z,85.57
2022-08-17T21:02:17.594Z,85.50
2022-08-17T21:05:00.133Z,85.86
2022-08-17T21:07:33.149Z,86.51
2022-08-17T21:10:21.580Z,86.87
2022-08-17T21:12:53.209Z,87.49
2022-08-17T21:15:42.276Z,87.55
2022-08-17T21:18:50.696Z,87.34
2022-08-17T21:21:39.332Z,87.58
2022-08-17T21:24:30.005Z,87.49
2022-08-17T21:27:23.934Z,87.47
2022-08-17T21:30:06.621Z,87.67
2022-08-17T21:32:41.177Z,87.86
2022-08-17T21:35:12.311Z,87.86
2022-08-17T21:37:38.895Z,87.91
2022-08-17T21:40:18.099Z,87.94
2022-08-17T21:43:18.699Z,87.91
2022-08-17T21:45:55.355Z,87.72
2022-08-17T21:48:24.817Z,88.38
2022-08-17T21:51:18.209Z,88.56
2022-08-17T21:53:47.382Z,88.74
2022-08-17T21:56:34.314Z,88.87
2022-08-17T21:59:07.823Z,89.03
2022-08-17T22:01:37.233Z,89.11
2022-08-17T22:04:17.775Z,89.20
2022-08-17T22:06:56.654Z,89.29
2022-08-17T22:09:45.381Z,89.33
2022-08-17T22:12:19.819Z,89.64
2022-08-17T22:14:57.782Z,89.67
2022-08-17T22:17:34.320Z,89.74
2022-08-17T22:20:08.459Z,89.58
2022-08-17T22:22:56.950Z,89.91
2022-08-17T22:25:25.639Z,90.22
2022-08-17T22:27:58.475Z,90.31
2022-08-17T22:30:29.598Z,90.40
2022-08-17T22:32:57.512Z,90.25
2022-08-17T22:35:42.926Z,90.34
2022-08-17T22:38:18.594Z,90.50
2022-08-17T22:41:15.020Z,90.51
2022-08-17T22:43:44.702Z,90.66
2022-08-17T22:46:12.404Z,90.71
2022-08-17T22:48:50.414Z,90.83
2022-08-17T22:51:23.287Z,91.00
2022-08-17T22:54:12.191Z,91.14
2022-08-17T22:57:06.228Z,91.26
2022-08-17T22:59:41.734Z,91.43
2022-08-17T23:02:24.545Z,91.54
2022-08-17T23:05:16.674Z,91.73
2022-08-17T23:07:45.377Z,91.96
2022-08-17T23:10:13.247Z,92.10
2022-08-17T23:12:40.057Z,92.43
2022-08-17T23:15:15.102Z,92.69
2022-08-17T23:17:42.013Z,92.94
2022-08-17T23:20:12.508Z,92.98
2022-08-17T23:22:51.352Z,93.23
2022-08-17T23:25:27.925Z,93.34
2022-08-17T23:27:55.603Z,93.58
2022-08-17T23:30:25.265Z,93.75
2022-08-17T23:32:54.312Z,93.88
2022-08-17T23:35:38.873Z,94.22
2022-08-17T23:38:07.459Z,94.17
2022-08-17T23:40:34.410Z,94.77
2022-08-17T23:43:00.853Z,94.76
2022-08-17T23:45:32.506Z,95.22
2022-08-17T23:47:58.899Z,95.23
2022-08-17T23:50:25.457Z,95.25
2022-08-17T23:52:57.516Z,95.48
2022-08-17T23:55:23.928Z,95.28
2022-08-17T23:57:50.635Z,95.10
